sensor_id;sensor_type;location;lat;lon;timestamp;P1;durP1;ratioP1;P2;durP2;ratioP2
26211;SDS011;13951;49.516;6.094;2023-05-07T00:02:31;1.50;;;1.40;;
26211;SDS011;13951;49.516;6.094;2023-05-07T00:05:05;1.37;;;1.27;;
26211;SDS011;13951;49.516;6.094;2023-05-07T00:07:38;1.40;;;1.20;;
26211;SDS011;13951;49.516;6.094;2023-05-07T00:10:12;1.70;;;1.23;;
26211;SDS011;13951;49.516;6.094;2023-05-07T00:12:45;2.00;;;1.17;;
26211;SDS011;13951;49.516;6.094;2023-05-07T00:15:18;1.50;;;1.30;;
26211;SDS011;13951;49.516;6.094;2023-05-07T00:17:51;1.30;;;1.20;;
26211;SDS011;13951;49.516;6.094;2023-05-07T00:20:24;1.47;;;1.30;;
26211;SDS011;13951;49.516;6.094;2023-05-07T00:22:57;1.30;;;1.20;;
26211;SDS011;13951;49.516;6.094;2023-05-07T00:25:30;3.43;;;1.57;;
26211;SDS011;13951;49.516;6.094;2023-05-07T00:28:03;2.47;;;1.23;;
26211;SDS011;13951;49.516;6.094;2023-05-07T00:30:36;1.37;;;1.27;;
26211;SDS011;13951;49.516;6.094;2023-05-07T00:33:09;1.57;;;1.07;;
26211;SDS011;13951;49.516;6.094;2023-05-07T00:35:43;1.80;;;1.30;;
26211;SDS011;13951;49.516;6.094;2023-05-07T00:38:15;1.20;;;1.10;;
26211;SDS011;13951;49.516;6.094;2023-05-07T00:40:49;2.00;;;1.20;;
26211;SDS011;13951;49.516;6.094;2023-05-07T00:43:22;1.00;;;1.00;;
26211;SDS011;13951;49.516;6.094;2023-05-07T00:45:55;0.93;;;0.93;;
26211;SDS011;13951;49.516;6.094;2023-05-07T00:48:28;0.83;;;0.83;;
26211;SDS011;13951;49.516;6.094;2023-05-07T00:51:02;1.03;;;0.93;;
26211;SDS011;13951;49.516;6.094;2023-05-07T00:53:35;1.10;;;1.00;;
26211;SDS011;13951;49.516;6.094;2023-05-07T00:56:08;1.10;;;1.10;;
26211;SDS011;13951;49.516;6.094;2023-05-07T00:58:42;1.20;;;1.10;;
26211;SDS011;13951;49.516;6.094;2023-05-07T01:01:15;1.10;;;1.10;;
26211;SDS011;13951;49.516;6.094;2023-05-07T01:03:48;1.20;;;1.10;;
26211;SDS011;13951;49.516;6.094;2023-05-07T01:06:22;1.40;;;1.10;;
26211;SDS011;13951;49.516;6.094;2023-05-07T01:08:58;0.80;;;0.80;;
26211;SDS011;13951;49.516;6.094;2023-05-07T01:11:32;1.27;;;1.17;;
26211;SDS011;13951;49.516;6.094;2023-05-07T01:14:05;1.27;;;1.00;;
26211;SDS011;13951;49.516;6.094;2023-05-07T01:16:39;1.77;;;1.33;;
26211;SDS011;13951;49.516;6.094;2023-05-07T01:19:14;1.27;;;1.07;;
26211;SDS011;13951;49.516;6.094;2023-05-07T01:21:50;1.77;;;1.20;;
26211;SDS011;13951;49.516;6.094;2023-05-07T01:24:25;1.87;;;1.57;;
26211;SDS011;13951;49.516;6.094;2023-05-07T01:26:58;1.50;;;1.40;;
26211;SDS011;13951;49.516;6.094;2023-05-07T01:29:31;1.60;;;1.50;;
26211;SDS011;13951;49.516;6.094;2023-05-07T01:32:04;1.37;;;1.10;;
26211;SDS011;13951;49.516;6.094;2023-05-07T01:34:38;1.10;;;1.00;;
26211;SDS011;13951;49.516;6.094;2023-05-07T01:37:12;1.17;;;0.90;;
26211;SDS011;13951;49.516;6.094;2023-05-07T01:39:47;1.03;;;0.90;;
26211;SDS011;13951;49.516;6.094;2023-05-07T01:42:20;0.93;;;0.80;;
26211;SDS011;13951;49.516;6.094;2023-05-07T01:44:54;0.80;;;0.80;;
26211;SDS011;13951;49.516;6.094;2023-05-07T01:47:27;1.63;;;1.20;;
26211;SDS011;13951;49.516;6.094;2023-05-07T01:50:03;1.40;;;1.30;;
26211;SDS011;13951;49.516;6.094;2023-05-07T01:52:41;1.10;;;1.00;;
26211;SDS011;13951;49.516;6.094;2023-05-07T01:55:14;0.90;;;0.90;;
26211;SDS011;13951;49.516;6.094;2023-05-07T01:57:47;1.43;;;1.10;;
26211;SDS011;13951;49.516;6.094;2023-05-07T02:00:20;1.17;;;1.07;;
26211;SDS011;13951;49.516;6.094;2023-05-07T02:02:54;1.33;;;1.03;;
26211;SDS011;13951;49.516;6.094;2023-05-07T02:05:44;1.63;;;1.20;;
26211;SDS011;13951;49.516;6.094;2023-05-07T02:08:25;1.10;;;1.00;;
26211;SDS011;13951;49.516;6.094;2023-05-07T02:10:57;1.17;;;1.07;;
26211;SDS011;13951;49.516;6.094;2023-05-07T02:13:31;1.37;;;1.10;;
26211;SDS011;13951;49.516;6.094;2023-05-07T02:16:05;0.80;;;0.80;;
26211;SDS011;13951;49.516;6.094;2023-05-07T02:18:39;1.27;;;1.17;;
26211;SDS011;13951;49.516;6.094;2023-05-07T02:21:12;0.90;;;0.90;;
26211;SDS011;13951;49.516;6.094;2023-05-07T02:23:45;1.10;;;1.00;;
26211;SDS011;13951;49.516;6.094;2023-05-07T02:26:18;1.10;;;1.00;;
26211;SDS011;13951;49.516;6.094;2023-05-07T02:28:51;1.27;;;1.17;;
26211;SDS011;13951;49.516;6.094;2023-05-07T02:31:24;1.40;;;1.10;;
26211;SDS011;13951;49.516;6.094;2023-05-07T02:33:57;1.17;;;1.07;;
26211;SDS011;13951;49.516;6.094;2023-05-07T02:36:30;1.30;;;1.20;;
26211;SDS011;13951;49.516;6.094;2023-05-07T02:39:12;1.67;;;1.23;;
26211;SDS011;13951;49.516;6.094;2023-05-07T02:41:45;1.20;;;1.10;;
26211;SDS011;13951;49.516;6.094;2023-05-07T02:44:19;1.03;;;1.00;;
26211;SDS011;13951;49.516;6.094;2023-05-07T02:46:54;1.47;;;1.17;;
26211;SDS011;13951;49.516;6.094;2023-05-07T02:49:27;0.97;;;0.97;;
26211;SDS011;13951;49.516;6.094;2023-05-07T02:52:00;2.47;;;1.20;;
26211;SDS011;13951;49.516;6.094;2023-05-07T02:54:33;2.67;;;1.20;;
26211;SDS011;13951;49.516;6.094;2023-05-07T02:57:06;1.13;;;1.03;;
26211;SDS011;13951;49.516;6.094;2023-05-07T02:59:39;1.77;;;0.97;;
26211;SDS011;13951;49.516;6.094;2023-05-07T03:02:12;1.37;;;1.10;;
26211;SDS011;13951;49.516;6.094;2023-05-07T03:05:00;1.10;;;1.00;;
26211;SDS011;13951;49.516;6.094;2023-05-07T03:07:33;1.47;;;1.10;;
26211;SDS011;13951;49.516;6.094;2023-05-07T03:10:07;1.00;;;0.80;;
26211;SDS011;13951;49.516;6.094;2023-05-07T03:12:41;0.77;;;0.77;;
26211;SDS011;13951;49.516;6.094;2023-05-07T03:15:17;1.40;;;1.00;;
26211;SDS011;13951;49.516;6.094;2023-05-07T03:17:49;1.13;;;1.00;;
26211;SDS011;13951;49.516;6.094;2023-05-07T03:20:22;1.20;;;1.10;;
26211;SDS011;13951;49.516;6.094;2023-05-07T03:22:55;1.07;;;1.00;;
26211;SDS011;13951;49.516;6.094;2023-05-07T03:25:28;0.70;;;0.70;;
26211;SDS011;13951;49.516;6.094;2023-05-07T03:28:04;1.10;;;1.00;;
26211;SDS011;13951;49.516;6.094;2023-05-07T03:30:46;0.90;;;0.80;;
26211;SDS011;13951;49.516;6.094;2023-05-07T03:33:19;0.80;;;0.80;;
26211;SDS011;13951;49.516;6.094;2023-05-07T03:35:53;0.70;;;0.70;;
26211;SDS011;13951;49.516;6.094;2023-05-07T03:38:29;1.10;;;1.00;;
26211;SDS011;13951;49.516;6.094;2023-05-07T03:41:03;1.30;;;1.20;;
26211;SDS011;13951;49.516;6.094;2023-05-07T03:43:35;2.07;;;1.47;;
26211;SDS011;13951;49.516;6.094;2023-05-07T03:46:12;1.43;;;1.23;;
26211;SDS011;13951;49.516;6.094;2023-05-07T03:48:46;5.10;;;1.60;;
26211;SDS011;13951;49.516;6.094;2023-05-07T03:51:20;2.20;;;1.50;;
26211;SDS011;13951;49.516;6.094;2023-05-07T03:53:53;1.27;;;1.17;;
26211;SDS011;13951;49.516;6.094;2023-05-07T03:56:27;1.60;;;1.13;;
26211;SDS011;13951;49.516;6.094;2023-05-07T03:59:02;1.70;;;1.23;;
26211;SDS011;13951;49.516;6.094;2023-05-07T04:01:35;2.37;;;1.20;;
26211;SDS011;13951;49.516;6.094;2023-05-07T04:04:08;1.23;;;1.10;;
26211;SDS011;13951;49.516;6.094;2023-05-07T04:06:42;0.90;;;0.90;;
26211;SDS011;13951;49.516;6.094;2023-05-07T04:09:15;0.90;;;0.90;;
26211;SDS011;13951;49.516;6.094;2023-05-07T04:11:49;0.90;;;0.90;;
26211;SDS011;13951;49.516;6.094;2023-05-07T04:14:22;1.33;;;1.10;;
26211;SDS011;13951;49.516;6.094;2023-05-07T04:16:55;1.27;;;1.10;;
26211;SDS011;13951;49.516;6.094;2023-05-07T04:19:28;1.00;;;1.00;;
26211;SDS011;13951;49.516;6.094;2023-05-07T04:22:01;1.43;;;1.23;;
26211;SDS011;13951;49.516;6.094;2023-05-07T04:24:34;1.70;;;1.20;;
26211;SDS011;13951;49.516;6.094;2023-05-07T04:27:08;1.70;;;1.30;;
26211;SDS011;13951;49.516;6.094;2023-05-07T04:29:41;1.87;;;1.40;;
26211;SDS011;13951;49.516;6.094;2023-05-07T04:32:17;2.03;;;1.40;;
26211;SDS011;13951;49.516;6.094;2023-05-07T04:34:50;1.50;;;1.30;;
26211;SDS011;13951;49.516;6.094;2023-05-07T04:37:24;1.20;;;1.10;;
26211;SDS011;13951;49.516;6.094;2023-05-07T04:39:58;1.47;;;1.37;;
26211;SDS011;13951;49.516;6.094;2023-05-07T04:42:31;1.60;;;1.50;;
26211;SDS011;13951;49.516;6.094;2023-05-07T04:45:07;1.60;;;1.50;;
26211;SDS011;13951;49.516;6.094;2023-05-07T04:47:42;1.40;;;1.30;;
26211;SDS011;13951;49.516;6.094;2023-05-07T04:50:15;1.37;;;1.27;;
26211;SDS011;13951;49.516;6.094;2023-05-07T04:52:49;1.13;;;1.00;;
26211;SDS011;13951;49.516;6.094;2023-05-07T04:55:23;1.40;;;1.30;;
26211;SDS011;13951;49.516;6.094;2023-05-07T04:57:56;3.77;;;1.43;;
26211;SDS011;13951;49.516;6.094;2023-05-07T05:00:30;1.40;;;1.30;;
26211;SDS011;13951;49.516;6.094;2023-05-07T05:03:03;1.50;;;1.40;;
26211;SDS011;13951;49.516;6.094;2023-05-07T05:05:38;1.40;;;1.30;;
26211;SDS011;13951;49.516;6.094;2023-05-07T05:08:11;1.47;;;1.33;;
26211;SDS011;13951;49.516;6.094;2023-05-07T05:10:46;1.83;;;1.70;;
26211;SDS011;13951;49.516;6.094;2023-05-07T05:13:22;1.73;;;1.40;;
26211;SDS011;13951;49.516;6.094;2023-05-07T05:15:55;1.57;;;1.43;;
26211;SDS011;13951;49.516;6.094;2023-05-07T05:18:30;1.87;;;1.63;;
26211;SDS011;13951;49.516;6.094;2023-05-07T05:21:03;1.73;;;1.63;;
26211;SDS011;13951;49.516;6.094;2023-05-07T05:23:37;1.85;;;1.70;;
26211;SDS011;13951;49.516;6.094;2023-05-07T05:26:11;1.90;;;1.60;;
26211;SDS011;13951;49.516;6.094;2023-05-07T05:28:44;1.80;;;1.60;;
26211;SDS011;13951;49.516;6.094;2023-05-07T05:31:17;1.80;;;1.70;;
26211;SDS011;13951;49.516;6.094;2023-05-07T05:33:51;1.60;;;1.50;;
26211;SDS011;13951;49.516;6.094;2023-05-07T05:36:23;1.60;;;1.50;;
26211;SDS011;13951;49.516;6.094;2023-05-07T05:38:59;2.27;;;1.60;;
26211;SDS011;13951;49.516;6.094;2023-05-07T05:41:33;2.33;;;1.90;;
26211;SDS011;13951;49.516;6.094;2023-05-07T05:44:07;2.07;;;1.87;;
26211;SDS011;13951;49.516;6.094;2023-05-07T05:46:41;2.43;;;1.87;;
26211;SDS011;13951;49.516;6.094;2023-05-07T05:49:14;1.83;;;1.70;;
26211;SDS011;13951;49.516;6.094;2023-05-07T05:51:47;2.00;;;1.90;;
26211;SDS011;13951;49.516;6.094;2023-05-07T05:54:20;2.53;;;2.30;;
26211;SDS011;13951;49.516;6.094;2023-05-07T05:56:54;2.23;;;2.03;;
26211;SDS011;13951;49.516;6.094;2023-05-07T05:59:28;2.63;;;2.17;;
26211;SDS011;13951;49.516;6.094;2023-05-07T06:02:01;3.83;;;2.30;;
26211;SDS011;13951;49.516;6.094;2023-05-07T06:04:34;3.37;;;2.10;;
26211;SDS011;13951;49.516;6.094;2023-05-07T06:07:08;2.53;;;2.00;;
26211;SDS011;13951;49.516;6.094;2023-05-07T06:09:42;2.33;;;2.13;;
26211;SDS011;13951;49.516;6.094;2023-05-07T06:12:14;4.50;;;2.33;;
26211;SDS011;13951;49.516;6.094;2023-05-07T06:14:48;2.73;;;2.17;;
26211;SDS011;13951;49.516;6.094;2023-05-07T06:17:24;2.47;;;2.27;;
26211;SDS011;13951;49.516;6.094;2023-05-07T06:19:56;3.08;;;2.78;;
26211;SDS011;13951;49.516;6.094;2023-05-07T06:22:29;3.10;;;2.60;;
26211;SDS011;13951;49.516;6.094;2023-05-07T06:25:07;3.83;;;2.63;;
26211;SDS011;13951;49.516;6.094;2023-05-07T06:32:06;3.37;;;2.67;;
26211;SDS011;13951;49.516;6.094;2023-05-07T06:35:48;2.87;;;2.50;;
26211;SDS011;13951;49.516;6.094;2023-05-07T06:38:23;2.70;;;2.50;;
26211;SDS011;13951;49.516;6.094;2023-05-07T06:40:55;3.10;;;2.70;;
26211;SDS011;13951;49.516;6.094;2023-05-07T06:43:31;3.13;;;2.63;;
26211;SDS011;13951;49.516;6.094;2023-05-07T06:46:30;3.47;;;2.97;;
26211;SDS011;13951;49.516;6.094;2023-05-07T06:49:08;2.80;;;2.60;;
26211;SDS011;13951;49.516;6.094;2023-05-07T06:51:41;2.70;;;2.50;;
26211;SDS011;13951;49.516;6.094;2023-05-07T06:54:14;3.33;;;2.60;;
26211;SDS011;13951;49.516;6.094;2023-05-07T06:56:49;3.03;;;2.73;;
26211;SDS011;13951;49.516;6.094;2023-05-07T06:59:23;4.23;;;2.80;;
26211;SDS011;13951;49.516;6.094;2023-05-07T07:01:57;3.87;;;3.03;;
26211;SDS011;13951;49.516;6.094;2023-05-07T07:04:30;2.40;;;2.20;;
26211;SDS011;13951;49.516;6.094;2023-05-07T07:07:08;4.10;;;2.95;;
26211;SDS011;13951;49.516;6.094;2023-05-07T07:09:41;2.67;;;2.47;;
26211;SDS011;13951;49.516;6.094;2023-05-07T07:12:15;3.63;;;2.40;;
26211;SDS011;13951;49.516;6.094;2023-05-07T07:14:48;3.42;;;2.38;;
26211;SDS011;13951;49.516;6.094;2023-05-07T07:17:21;3.22;;;2.60;;
26211;SDS011;13951;49.516;6.094;2023-05-07T07:19:54;2.30;;;2.10;;
26211;SDS011;13951;49.516;6.094;2023-05-07T07:22:28;2.63;;;2.40;;
26211;SDS011;13951;49.516;6.094;2023-05-07T07:25:01;2.65;;;2.10;;
26211;SDS011;13951;49.516;6.094;2023-05-07T07:27:36;2.47;;;2.03;;
26211;SDS011;13951;49.516;6.094;2023-05-07T07:30:09;2.75;;;2.10;;
26211;SDS011;13951;49.516;6.094;2023-05-07T07:32:45;2.42;;;1.92;;
26211;SDS011;13951;49.516;6.094;2023-05-07T07:35:19;1.90;;;1.70;;
26211;SDS011;13951;49.516;6.094;2023-05-07T07:37:53;2.55;;;2.10;;
26211;SDS011;13951;49.516;6.094;2023-05-07T07:40:25;1.90;;;1.67;;
26211;SDS011;13951;49.516;6.094;2023-05-07T07:42:59;2.17;;;1.80;;
26211;SDS011;13951;49.516;6.094;2023-05-07T07:45:34;2.35;;;1.88;;
26211;SDS011;13951;49.516;6.094;2023-05-07T07:48:07;2.22;;;1.73;;
26211;SDS011;13951;49.516;6.094;2023-05-07T07:50:42;2.03;;;1.80;;
26211;SDS011;13951;49.516;6.094;2023-05-07T07:53:20;1.75;;;1.55;;
26211;SDS011;13951;49.516;6.094;2023-05-07T07:55:53;2.30;;;2.10;;
26211;SDS011;13951;49.516;6.094;2023-05-07T07:58:32;3.00;;;2.10;;
26211;SDS011;13951;49.516;6.094;2023-05-07T08:01:08;3.80;;;1.88;;
26211;SDS011;13951;49.516;6.094;2023-05-07T08:03:41;2.15;;;1.90;;
26211;SDS011;13951;49.516;6.094;2023-05-07T08:06:14;3.42;;;2.05;;
26211;SDS011;13951;49.516;6.094;2023-05-07T08:08:47;4.57;;;2.03;;
26211;SDS011;13951;49.516;6.094;2023-05-07T08:11:22;3.25;;;1.80;;
26211;SDS011;13951;49.516;6.094;2023-05-07T08:13:55;2.90;;;1.98;;
26211;SDS011;13951;49.516;6.094;2023-05-07T08:16:29;2.83;;;1.90;;
26211;SDS011;13951;49.516;6.094;2023-05-07T08:19:04;2.83;;;1.77;;
26211;SDS011;13951;49.516;6.094;2023-05-07T08:21:40;2.05;;;1.85;;
26211;SDS011;13951;49.516;6.094;2023-05-07T08:24:15;3.95;;;2.67;;
26211;SDS011;13951;49.516;6.094;2023-05-07T08:26:48;2.95;;;1.90;;
26211;SDS011;13951;49.516;6.094;2023-05-07T08:29:22;2.63;;;1.85;;
26211;SDS011;13951;49.516;6.094;2023-05-07T08:31:55;2.05;;;1.58;;
26211;SDS011;13951;49.516;6.094;2023-05-07T08:34:28;2.95;;;1.52;;
26211;SDS011;13951;49.516;6.094;2023-05-07T08:37:03;1.73;;;1.55;;
26211;SDS011;13951;49.516;6.094;2023-05-07T08:39:37;2.35;;;1.48;;
26211;SDS011;13951;49.516;6.094;2023-05-07T08:42:16;2.05;;;1.42;;
26211;SDS011;13951;49.516;6.094;2023-05-07T08:44:50;2.00;;;1.40;;
26211;SDS011;13951;49.516;6.094;2023-05-07T08:47:29;2.03;;;1.30;;
26211;SDS011;13951;49.516;6.094;2023-05-07T08:50:11;1.67;;;1.27;;
26211;SDS011;13951;49.516;6.094;2023-05-07T08:52:45;2.17;;;1.00;;
26211;SDS011;13951;49.516;6.094;2023-05-07T08:55:19;2.05;;;1.45;;
26211;SDS011;13951;49.516;6.094;2023-05-07T08:57:53;2.85;;;1.60;;
26211;SDS011;13951;49.516;6.094;2023-05-07T09:00:26;3.25;;;2.05;;
26211;SDS011;13951;49.516;6.094;2023-05-07T09:03:00;1.88;;;1.45;;
26211;SDS011;13951;49.516;6.094;2023-05-07T09:05:34;1.80;;;1.63;;
26211;SDS011;13951;49.516;6.094;2023-05-07T09:08:14;1.85;;;1.48;;
26211;SDS011;13951;49.516;6.094;2023-05-07T09:10:49;1.50;;;1.40;;
26211;SDS011;13951;49.516;6.094;2023-05-07T09:13:22;2.80;;;1.70;;
26211;SDS011;13951;49.516;6.094;2023-05-07T09:15:56;2.03;;;1.23;;
26211;SDS011;13951;49.516;6.094;2023-05-07T09:18:30;2.15;;;1.40;;
26211;SDS011;13951;49.516;6.094;2023-05-07T09:21:05;2.10;;;1.30;;
26211;SDS011;13951;49.516;6.094;2023-05-07T09:23:41;1.50;;;1.40;;
26211;SDS011;13951;49.516;6.094;2023-05-07T09:26:16;1.70;;;1.52;;
26211;SDS011;13951;49.516;6.094;2023-05-07T09:28:50;1.77;;;1.58;;
26211;SDS011;13951;49.516;6.094;2023-05-07T09:31:25;2.13;;;1.33;;
26211;SDS011;13951;49.516;6.094;2023-05-07T09:34:00;1.65;;;1.30;;
26211;SDS011;13951;49.516;6.094;2023-05-07T09:36:36;1.40;;;1.30;;
26211;SDS011;13951;49.516;6.094;2023-05-07T09:39:09;2.83;;;1.83;;
26211;SDS011;13951;49.516;6.094;2023-05-07T09:41:45;2.58;;;1.77;;
26211;SDS011;13951;49.516;6.094;2023-05-07T09:44:26;2.80;;;1.80;;
26211;SDS011;13951;49.516;6.094;2023-05-07T09:46:59;3.35;;;2.40;;
26211;SDS011;13951;49.516;6.094;2023-05-07T09:49:40;2.67;;;1.90;;
26211;SDS011;13951;49.516;6.094;2023-05-07T09:52:23;3.25;;;1.83;;
26211;SDS011;13951;49.516;6.094;2023-05-07T09:54:59;2.20;;;1.88;;
26211;SDS011;13951;49.516;6.094;2023-05-07T09:57:36;1.90;;;1.63;;
26211;SDS011;13951;49.516;6.094;2023-05-07T10:00:12;3.28;;;1.88;;
26211;SDS011;13951;49.516;6.094;2023-05-07T10:02:53;1.70;;;1.58;;
26211;SDS011;13951;49.516;6.094;2023-05-07T10:05:38;2.53;;;1.77;;
26211;SDS011;13951;49.516;6.094;2023-05-07T10:08:11;3.15;;;2.47;;
26211;SDS011;13951;49.516;6.094;2023-05-07T10:10:45;3.80;;;3.15;;
26211;SDS011;13951;49.516;6.094;2023-05-07T10:13:22;3.78;;;2.30;;
26211;SDS011;13951;49.516;6.094;2023-05-07T10:16:00;4.75;;;2.08;;
26211;SDS011;13951;49.516;6.094;2023-05-07T10:18:40;2.08;;;1.83;;
26211;SDS011;13951;49.516;6.094;2023-05-07T10:21:21;2.85;;;1.83;;
26211;SDS011;13951;49.516;6.094;2023-05-07T10:26:43;2.70;;;1.88;;
26211;SDS011;13951;49.516;6.094;2023-05-07T10:34:54;2.15;;;1.88;;
26211;SDS011;13951;49.516;6.094;2023-05-07T10:37:31;2.22;;;1.70;;
26211;SDS011;13951;49.516;6.094;2023-05-07T10:40:05;2.47;;;1.88;;
26211;SDS011;13951;49.516;6.094;2023-05-07T10:42:52;4.22;;;1.67;;
26211;SDS011;13951;49.516;6.094;2023-05-07T10:45:27;2.10;;;1.90;;
26211;SDS011;13951;49.516;6.094;2023-05-07T10:48:13;3.85;;;2.10;;
26211;SDS011;13951;49.516;6.094;2023-05-07T10:51:22;3.63;;;2.15;;
26211;SDS011;13951;49.516;6.094;2023-05-07T10:56:54;4.53;;;1.73;;
26211;SDS011;13951;49.516;6.094;2023-05-07T11:02:15;1.75;;;1.50;;
26211;SDS011;13951;49.516;6.094;2023-05-07T11:08:02;5.10;;;2.28;;
26211;SDS011;13951;49.516;6.094;2023-05-07T11:16:27;2.85;;;1.73;;
26211;SDS011;13951;49.516;6.094;2023-05-07T11:19:10;2.50;;;2.13;;
26211;SDS011;13951;49.516;6.094;2023-05-07T11:21:48;3.33;;;2.20;;
26211;SDS011;13951;49.516;6.094;2023-05-07T11:24:44;6.15;;;2.30;;
26211;SDS011;13951;49.516;6.094;2023-05-07T11:27:22;4.20;;;2.45;;
26211;SDS011;13951;49.516;6.094;2023-05-07T11:29:56;1.92;;;1.70;;
26211;SDS011;13951;49.516;6.094;2023-05-07T11:32:30;2.60;;;1.73;;
26211;SDS011;13951;49.516;6.094;2023-05-07T11:35:05;2.47;;;1.85;;
26211;SDS011;13951;49.516;6.094;2023-05-07T11:37:38;2.72;;;1.50;;
26211;SDS011;13951;49.516;6.094;2023-05-07T11:40:11;2.33;;;1.58;;
26211;SDS011;13951;49.516;6.094;2023-05-07T11:42:46;2.42;;;1.60;;
26211;SDS011;13951;49.516;6.094;2023-05-07T11:45:23;2.72;;;1.60;;
26211;SDS011;13951;49.516;6.094;2023-05-07T11:47:59;2.58;;;1.95;;
26211;SDS011;13951;49.516;6.094;2023-05-07T11:50:34;2.28;;;2.08;;
26211;SDS011;13951;49.516;6.094;2023-05-07T11:53:07;2.55;;;1.70;;
26211;SDS011;13951;49.516;6.094;2023-05-07T11:55:40;2.88;;;1.90;;
26211;SDS011;13951;49.516;6.094;2023-05-07T11:58:18;3.13;;;1.80;;
26211;SDS011;13951;49.516;6.094;2023-05-07T12:00:54;2.58;;;1.90;;
26211;SDS011;13951;49.516;6.094;2023-05-07T12:03:27;1.80;;;1.60;;
26211;SDS011;13951;49.516;6.094;2023-05-07T12:06:06;2.38;;;1.83;;
26211;SDS011;13951;49.516;6.094;2023-05-07T12:08:40;3.03;;;1.60;;
26211;SDS011;13951;49.516;6.094;2023-05-07T12:11:22;2.35;;;1.80;;
26211;SDS011;13951;49.516;6.094;2023-05-07T12:13:56;2.00;;;1.55;;
26211;SDS011;13951;49.516;6.094;2023-05-07T12:16:31;2.70;;;1.70;;
26211;SDS011;13951;49.516;6.094;2023-05-07T12:19:04;2.58;;;1.80;;
26211;SDS011;13951;49.516;6.094;2023-05-07T12:21:38;3.05;;;1.80;;
26211;SDS011;13951;49.516;6.094;2023-05-07T12:24:14;1.70;;;1.60;;
26211;SDS011;13951;49.516;6.094;2023-05-07T12:26:47;2.25;;;1.63;;
26211;SDS011;13951;49.516;6.094;2023-05-07T12:29:21;1.80;;;1.60;;
26211;SDS011;13951;49.516;6.094;2023-05-07T12:31:55;2.83;;;1.80;;
26211;SDS011;13951;49.516;6.094;2023-05-07T12:34:28;3.13;;;1.88;;
26211;SDS011;13951;49.516;6.094;2023-05-07T12:37:02;2.53;;;1.73;;
26211;SDS011;13951;49.516;6.094;2023-05-07T12:39:36;2.53;;;2.00;;
26211;SDS011;13951;49.516;6.094;2023-05-07T12:42:09;2.63;;;2.03;;
26211;SDS011;13951;49.516;6.094;2023-05-07T12:44:48;2.95;;;1.85;;
26211;SDS011;13951;49.516;6.094;2023-05-07T12:47:22;3.45;;;1.98;;
26211;SDS011;13951;49.516;6.094;2023-05-07T12:49:54;2.47;;;1.63;;
26211;SDS011;13951;49.516;6.094;2023-05-07T12:52:28;2.15;;;1.70;;
26211;SDS011;13951;49.516;6.094;2023-05-07T12:55:05;3.85;;;2.00;;
26211;SDS011;13951;49.516;6.094;2023-05-07T12:57:39;2.22;;;1.73;;
26211;SDS011;13951;49.516;6.094;2023-05-07T13:00:13;3.55;;;1.92;;
26211;SDS011;13951;49.516;6.094;2023-05-07T13:02:47;2.97;;;2.22;;
26211;SDS011;13951;49.516;6.094;2023-05-07T13:05:20;4.40;;;1.85;;
26211;SDS011;13951;49.516;6.094;2023-05-07T13:07:53;1.80;;;1.65;;
26211;SDS011;13951;49.516;6.094;2023-05-07T13:10:27;2.53;;;1.80;;
26211;SDS011;13951;49.516;6.094;2023-05-07T13:13:01;2.58;;;1.90;;
26211;SDS011;13951;49.516;6.094;2023-05-07T13:15:34;2.95;;;1.80;;
26211;SDS011;13951;49.516;6.094;2023-05-07T13:18:07;3.92;;;2.88;;
26211;SDS011;13951;49.516;6.094;2023-05-07T13:20:42;3.47;;;1.75;;
26211;SDS011;13951;49.516;6.094;2023-05-07T13:23:15;3.10;;;2.13;;
26211;SDS011;13951;49.516;6.094;2023-05-07T13:25:48;2.53;;;1.52;;
26211;SDS011;13951;49.516;6.094;2023-05-07T13:28:23;2.65;;;1.90;;
26211;SDS011;13951;49.516;6.094;2023-05-07T13:30:56;2.53;;;1.90;;
26211;SDS011;13951;49.516;6.094;2023-05-07T13:33:29;2.00;;;1.80;;
26211;SDS011;13951;49.516;6.094;2023-05-07T13:36:02;2.45;;;1.77;;
26211;SDS011;13951;49.516;6.094;2023-05-07T13:38:38;2.85;;;1.70;;
26211;SDS011;13951;49.516;6.094;2023-05-07T13:41:11;2.50;;;1.80;;
26211;SDS011;13951;49.516;6.094;2023-05-07T13:43:45;1.60;;;1.48;;
26211;SDS011;13951;49.516;6.094;2023-05-07T13:46:18;2.65;;;2.00;;
26211;SDS011;13951;49.516;6.094;2023-05-07T13:48:51;2.30;;;2.00;;
26211;SDS011;13951;49.516;6.094;2023-05-07T13:51:26;3.80;;;1.90;;
26211;SDS011;13951;49.516;6.094;2023-05-07T13:53:59;2.53;;;1.90;;
26211;SDS011;13951;49.516;6.094;2023-05-07T13:56:32;2.60;;;1.80;;
26211;SDS011;13951;49.516;6.094;2023-05-07T13:59:04;2.25;;;1.70;;
26211;SDS011;13951;49.516;6.094;2023-05-07T14:01:37;2.85;;;1.85;;
26211;SDS011;13951;49.516;6.094;2023-05-07T14:04:10;1.83;;;1.42;;
26211;SDS011;13951;49.516;6.094;2023-05-07T14:06:43;4.80;;;2.00;;
26211;SDS011;13951;49.516;6.094;2023-05-07T14:09:16;2.72;;;1.75;;
26211;SDS011;13951;49.516;6.094;2023-05-07T14:11:49;3.28;;;2.05;;
26211;SDS011;13951;49.516;6.094;2023-05-07T14:14:23;3.08;;;1.90;;
26211;SDS011;13951;49.516;6.094;2023-05-07T14:16:56;3.30;;;2.17;;
26211;SDS011;13951;49.516;6.094;2023-05-07T14:19:30;4.95;;;2.22;;
26211;SDS011;13951;49.516;6.094;2023-05-07T14:22:04;2.10;;;1.63;;
26211;SDS011;13951;49.516;6.094;2023-05-07T14:24:37;2.55;;;2.25;;
26211;SDS011;13951;49.516;6.094;2023-05-07T14:27:11;2.03;;;1.77;;
26211;SDS011;13951;49.516;6.094;2023-05-07T14:29:43;2.28;;;1.75;;
26211;SDS011;13951;49.516;6.094;2023-05-07T14:32:17;3.60;;;1.90;;
26211;SDS011;13951;49.516;6.094;2023-05-07T14:34:50;2.92;;;1.90;;
26211;SDS011;13951;49.516;6.094;2023-05-07T14:37:23;3.35;;;2.20;;
26211;SDS011;13951;49.516;6.094;2023-05-07T14:39:56;3.72;;;2.00;;
26211;SDS011;13951;49.516;6.094;2023-05-07T14:42:29;2.70;;;1.92;;
26211;SDS011;13951;49.516;6.094;2023-05-07T14:45:02;2.72;;;2.00;;
26211;SDS011;13951;49.516;6.094;2023-05-07T14:47:36;3.30;;;1.92;;
26211;SDS011;13951;49.516;6.094;2023-05-07T14:50:11;2.80;;;2.20;;
26211;SDS011;13951;49.516;6.094;2023-05-07T14:52:44;2.17;;;1.98;;
26211;SDS011;13951;49.516;6.094;2023-05-07T14:55:17;2.42;;;2.05;;
26211;SDS011;13951;49.516;6.094;2023-05-07T14:57:50;1.98;;;1.75;;
26211;SDS011;13951;49.516;6.094;2023-05-07T15:00:23;2.25;;;2.05;;
26211;SDS011;13951;49.516;6.094;2023-05-07T15:02:56;2.10;;;1.90;;
26211;SDS011;13951;49.516;6.094;2023-05-07T15:05:40;3.55;;;2.08;;
26211;SDS011;13951;49.516;6.094;2023-05-07T15:08:13;2.90;;;2.28;;
26211;SDS011;13951;49.516;6.094;2023-05-07T15:10:46;2.50;;;2.30;;
26211;SDS011;13951;49.516;6.094;2023-05-07T15:13:19;3.00;;;1.90;;
26211;SDS011;13951;49.516;6.094;2023-05-07T15:15:52;4.65;;;2.42;;
26211;SDS011;13951;49.516;6.094;2023-05-07T15:18:25;2.20;;;2.00;;
26211;SDS011;13951;49.516;6.094;2023-05-07T15:20:58;3.75;;;2.30;;
26211;SDS011;13951;49.516;6.094;2023-05-07T15:23:31;3.75;;;1.90;;
26211;SDS011;13951;49.516;6.094;2023-05-07T15:26:04;2.50;;;1.95;;
26211;SDS011;13951;49.516;6.094;2023-05-07T15:28:39;3.03;;;2.10;;
26211;SDS011;13951;49.516;6.094;2023-05-07T15:31:15;2.83;;;2.08;;
26211;SDS011;13951;49.516;6.094;2023-05-07T15:33:49;3.80;;;2.08;;
26211;SDS011;13951;49.516;6.094;2023-05-07T15:36:24;7.03;;;4.22;;
26211;SDS011;13951;49.516;6.094;2023-05-07T15:38:57;4.38;;;2.15;;
26211;SDS011;13951;49.516;6.094;2023-05-07T15:41:30;3.80;;;2.05;;
26211;SDS011;13951;49.516;6.094;2023-05-07T15:44:03;3.88;;;2.10;;
26211;SDS011;13951;49.516;6.094;2023-05-07T15:46:37;2.28;;;1.80;;
26211;SDS011;13951;49.516;6.094;2023-05-07T15:49:09;2.22;;;1.77;;
26211;SDS011;13951;49.516;6.094;2023-05-07T15:51:42;3.03;;;2.00;;
26211;SDS011;13951;49.516;6.094;2023-05-07T15:54:15;3.58;;;2.13;;
26211;SDS011;13951;49.516;6.094;2023-05-07T15:56:52;3.42;;;2.20;;
26211;SDS011;13951;49.516;6.094;2023-05-07T15:59:24;2.92;;;2.10;;
26211;SDS011;13951;49.516;6.094;2023-05-07T16:01:57;2.05;;;1.83;;